Kinetic-One Castle Combe TT Series 2018
Skip Navigation Links
Results
Team Results
Live Leaderboard
DB Max TT Series
Race Stats
Smartphone Results
8 Aug 2018
HyperLink
Click on your name for more detailed race data
Page 1 of 3 (116 items)
[1]23
Pos
Bib No
Fav
Share
Photo
Name
Time
Category
Cat Pos
Gender
Gen Pos
Club
Start Time
Split 1
G/Pos
Lap 1
G/Pos
Lap 2
G/Pos
Lap 3
G/Pos
Lap 4
G/Pos
Lap 5
G/Pos
1149Arthur FRANKLIN 20:02.0Sen1Male1PDQ CYCLE COACHING 20:14:301:47.443:39.513:39.023:39.923:41.013:34.91
2147Matt SLATER20:09.9Vet401Male2REVO RACING20:13:301:46.123:41.323:38.613:39.813:42.423:41.42
3144Ross PHELPS20:37.2Sen2Male3BRISTOL ROAD CLUB20:12:001:49.383:44.253:45.743:47.943:47.543:42.43
4142Liam BARD20:37.5Sen3Male4REVO RACING20:11:001:41.013:43.743:48.163:50.063:47.533:47.04
5134Richard BROOK20:39.8Vet451Male5VC WALCOT 20:07:001:46.333:44.963:45.333:46.233:48.453:48.45
6136Greg PARKER20:49.1Vet501Male6CC WEYMOUTH20:08:001:51.2103:41.533:46.953:48.353:52.063:48.96
7146Andrew EDWARDS21:15.3Vet402Male7BRISTOL ROAD CLUB20:13:001:47.553:51.873:56.083:51.973:57.293:50.78
8130Martin ALDAM21:30.4Vet452Male8BATH CC20:05:001:56.7293:57.3123:54.573:53.283:54.083:54.59
9122Christopher OWRAM21:30.9Sen4Male9PDQ CYCLE COACHING 20:01:001:59.7373:56.5113:57.393:53.493:54.073:49.87
10145Paul RYMAN21:51.5Sen5Male10TEAM DB MAX20:12:301:49.593:57.5134:01.8123:59.0104:03.1114:00.412
11125Tom SHARP21:54.3Sen6Male11BRISTOL ROAD CLUB20:02:301:51.3113:54.384:01.6114:03.2134:04.1123:59.611
12124Simon WARD21:56.7Vet403Male12BRISTOL ROAD CLUB20:02:001:48.263:56.0103:59.4104:02.4124:06.0134:04.515
13123John RUSSELL21:58.5Vet453Male13BRISTOL ROAD CLUB20:01:301:49.273:55.494:02.6144:00.5114:07.5154:03.113
14129James FRITCHLEY22:01.4Sen7Male14WESTBURY WHEELERS 20:04:301:55.4244:04.4204:04.4164:04.1143:58.2103:54.710
1586Anthony WEARE22:20.4Vet404Male15CHIPPENHAM WHEELERS19:43:001:51.8134:01.1154:03.9154:06.6154:11.9214:04.916
16126Julian HARPER22:30.8Vet454Male16REVO RACING20:03:001:57.1304:05.6214:07.5194:07.5164:07.2144:05.717
17143Peter HATT22:33.3Vet502Male17VC ST RAPHAEL20:11:301:57.3314:03.3174:06.3184:07.5174:10.5174:08.120
18133Jason STREATHER22:36.1Vet405Male18PDQ CYCLE COACHING 20:06:301:51.4123:59.4144:02.2134:11.2194:14.6254:17.031
19112Steve BRAY22:36.1Vet455Male19SALTFORD AND KEYNSHAM CC19:56:001:52.7164:04.2184:09.4224:11.7224:11.8204:06.118
20131David POLLARD22:37.0Sen8Male20 20:05:301:58.4354:01.4164:05.5174:08.5184:12.4224:10.522
21128Wayne OSMOND22:37.4Vet551Male21VCB20:04:001:53.8184:08.6264:08.4204:11.3204:10.9184:04.114
22110Jon WIGGINS22:41.8Sen9Male22PDQ CYCLE COACHING 19:55:001:54.3194:06.4234:09.4214:11.3214:12.5234:07.719
2390Nigel BROWN22:48.8Vet503Male23WESTBURY WHEELERS 19:45:001:55.1224:04.3194:13.6264:14.1264:11.5194:10.121
24102Chrissie ROWLEY 22:53.5Vet501Female1NOPINZ 19:51:001:56.514:07.414:11.814:14.214:14.614:08.81
2599Chris LENG23:02.6Vet456Male24VC WALCOT 19:49:301:56.6284:10.8294:21.6364:14.6284:08.0164:10.723
2673Nick BUFFERY23:06.0Sen10Male25 19:36:301:53.1174:07.0244:15.6304:14.1274:19.8324:16.330
275Mike COX23:06.2Vet601Male26TEAM DB MAX19:02:301:58.6364:13.7324:11.4244:12.5234:17.4304:12.425
28121David BUTT23:08.6Vet602Male27CC WEYMOUTH20:00:301:56.3264:08.6254:10.1234:13.9254:17.1294:22.337
2996Simon EDNEY23:08.8Vet552Male28REVO RACING19:48:001:55.2234:11.6304:16.0324:16.3314:16.7284:12.726
30100Tom BANDY23:08.9Sen11Male29PORTSDOWN HILL CC19:50:001:57.9334:08.8274:13.2254:13.3244:15.3264:20.333
31111Mark JERZAK23:14.1Sen12Male30CHEW VALLEY CYCLING CLUB19:55:301:52.2154:05.9224:14.6274:21.0344:19.2314:21.035
32105Arran ARMSTRONG23:16.9Vet406Male31VC WALCOT 19:52:302:04.6474:12.7314:14.8284:15.3294:15.5274:13.727
33113Ian MOORE23:21.2Vet553Male32PHIL KIBBLE COACHING19:56:301:52.1144:15.9384:16.8334:17.0324:20.2334:18.832
3470Giles BISSETT23:27.1Vet457Male33 19:35:001:54.6214:14.4344:18.4354:20.7334:24.7364:14.028
35120Steve POTTS23:43.6Vet603Male34PDQ CYCLE COACHING 20:00:002:00.3384:09.0284:15.6314:16.1304:14.5244:47.959
36103Martin NEILL23:45.9Vet458Male35FLYING MONK TRIATHLON CLUB19:51:302:03.3414:13.8334:17.2344:21.9354:25.7394:23.939
37109Jerry RAYNER 23:46.1Vet407Male36WESTBURY WHEELERS 19:54:301:54.4204:14.5354:22.8394:23.5384:25.6384:25.040
3884Mike ANDERSON23:47.7Vet604Male37VC VENTA19:42:002:07.4574:15.8374:15.1294:23.5374:24.2354:21.436
3941Chris MCDONALD23:49.1Tandem1Male38 19:20:302:03.7434:19.1414:27.0454:22.9364:24.7374:11.424
4067Ben PSAILA23:53.7Sen13Male39WESTBURY WHEELERS 19:33:302:04.5464:23.4464:25.9444:24.1414:21.1344:14.429
41114Andrew HENDERSON24:01.9Vet408Male40WESTBURY WHEELERS 19:57:001:55.7254:15.7364:22.6374:27.1424:31.5494:29.147
4298Mark GATESHILL24:06.0Sen14Male41PDQ CYCLE COACHING 19:49:002:02.6404:17.1404:22.9404:24.0404:28.4434:30.949
43116Txema GARCIA24:08.5Vet459Male42TCC19:58:002:03.5424:16.7394:22.8384:29.3444:28.7444:27.443
4491Dave TOMLINSON24:09.3Vet504Male43 19:45:301:58.3344:22.4444:25.6434:30.1474:27.5414:25.241
45104Bethany TAYLOR24:13.2Sen1Female2PDQ CYCLE COACHING 19:52:002:06.044:18.924:24.834:28.434:27.224:27.52
4629Tim KENT24:14.5Sen15Male44 19:14:302:01.0394:26.5494:29.6484:27.3434:27.0404:22.838
4782Stephen CHAPMAN24:14.8Vet554Male45CORINIUM CYCLING CLUB19:41:002:05.6514:20.3424:23.2414:29.4454:30.5474:25.642
4875Gary FORD24:15.1Vet409Male46TEAM BOTTRILL VANGUARD19:37:302:06.9554:21.1434:23.9424:23.8394:29.9454:29.348
4935Chris GOODALL24:19.1Sen16Male47DEVIZES TOWN CYCLING CLUB19:17:301:56.4274:24.9484:28.0464:30.3484:28.3424:30.950
5089Tim LOWRIE24:20.8Vet4010Male48WESTBURY WHEELERS 19:44:301:57.3324:22.6454:29.6494:31.4504:30.6484:28.946
Page 1 of 3 (116 items)
[1]23
fb

HyperLink Copyright (c) G Vincent, 2018